sensor_id;sensor_type;location;lat;lon;timestamp;P1;durP1;ratioP1;P2;durP2;ratioP2
9270;SDS011;4673;53.458;9.940;2024-03-08T00:01:53;12.73;;;12.63;;
9270;SDS011;4673;53.458;9.940;2024-03-08T00:04:18;12.10;;;12.00;;
9270;SDS011;4673;53.458;9.940;2024-03-08T00:06:44;12.17;;;12.07;;
9270;SDS011;4673;53.458;9.940;2024-03-08T00:09:11;13.77;;;13.67;;
9270;SDS011;4673;53.458;9.940;2024-03-08T00:11:37;13.47;;;13.37;;
9270;SDS011;4673;53.458;9.940;2024-03-08T00:14:03;14.50;;;14.40;;
9270;SDS011;4673;53.458;9.940;2024-03-08T00:16:31;13.70;;;13.60;;
9270;SDS011;4673;53.458;9.940;2024-03-08T00:18:57;13.57;;;13.47;;
9270;SDS011;4673;53.458;9.940;2024-03-08T00:21:23;12.17;;;12.07;;
9270;SDS011;4673;53.458;9.940;2024-03-08T00:23:49;12.30;;;12.20;;
9270;SDS011;4673;53.458;9.940;2024-03-08T00:26:14;11.80;;;11.70;;
9270;SDS011;4673;53.458;9.940;2024-03-08T00:28:40;11.73;;;11.73;;
9270;SDS011;4673;53.458;9.940;2024-03-08T00:31:06;13.53;;;13.43;;
9270;SDS011;4673;53.458;9.940;2024-03-08T00:33:32;13.77;;;13.67;;
9270;SDS011;4673;53.458;9.940;2024-03-08T00:35:57;12.27;;;12.17;;
9270;SDS011;4673;53.458;9.940;2024-03-08T00:38:23;12.53;;;12.47;;
9270;SDS011;4673;53.458;9.940;2024-03-08T00:40:49;13.37;;;13.27;;
9270;SDS011;4673;53.458;9.940;2024-03-08T00:43:14;12.07;;;11.97;;
9270;SDS011;4673;53.458;9.940;2024-03-08T00:45:40;12.93;;;12.83;;
9270;SDS011;4673;53.458;9.940;2024-03-08T00:48:09;13.50;;;13.40;;
9270;SDS011;4673;53.458;9.940;2024-03-08T00:50:36;12.93;;;12.83;;
9270;SDS011;4673;53.458;9.940;2024-03-08T00:53:02;12.07;;;11.97;;
9270;SDS011;4673;53.458;9.940;2024-03-08T00:55:28;12.37;;;12.27;;
9270;SDS011;4673;53.458;9.940;2024-03-08T00:57:54;13.17;;;13.07;;
9270;SDS011;4673;53.458;9.940;2024-03-08T01:00:20;11.77;;;11.67;;
9270;SDS011;4673;53.458;9.940;2024-03-08T01:02:46;13.13;;;13.03;;
9270;SDS011;4673;53.458;9.940;2024-03-08T01:05:13;11.63;;;11.53;;
9270;SDS011;4673;53.458;9.940;2024-03-08T01:07:38;12.47;;;12.37;;
9270;SDS011;4673;53.458;9.940;2024-03-08T01:10:04;13.20;;;13.10;;
9270;SDS011;4673;53.458;9.940;2024-03-08T01:12:34;13.97;;;13.87;;
9270;SDS011;4673;53.458;9.940;2024-03-08T01:15:00;12.17;;;12.07;;
9270;SDS011;4673;53.458;9.940;2024-03-08T01:17:26;11.90;;;11.80;;
9270;SDS011;4673;53.458;9.940;2024-03-08T01:19:51;11.27;;;11.17;;
9270;SDS011;4673;53.458;9.940;2024-03-08T01:22:18;11.40;;;11.30;;
9270;SDS011;4673;53.458;9.940;2024-03-08T01:24:44;12.87;;;12.77;;
9270;SDS011;4673;53.458;9.940;2024-03-08T01:27:10;12.57;;;12.47;;
9270;SDS011;4673;53.458;9.940;2024-03-08T01:29:37;13.33;;;13.23;;
9270;SDS011;4673;53.458;9.940;2024-03-08T01:32:02;13.43;;;13.33;;
9270;SDS011;4673;53.458;9.940;2024-03-08T01:34:28;13.33;;;13.23;;
9270;SDS011;4673;53.458;9.940;2024-03-08T01:36:54;13.87;;;13.77;;
9270;SDS011;4673;53.458;9.940;2024-03-08T01:39:23;13.73;;;13.63;;
9270;SDS011;4673;53.458;9.940;2024-03-08T01:41:49;13.60;;;13.50;;
9270;SDS011;4673;53.458;9.940;2024-03-08T01:44:14;12.40;;;12.30;;
9270;SDS011;4673;53.458;9.940;2024-03-08T01:46:43;13.17;;;13.07;;
9270;SDS011;4673;53.458;9.940;2024-03-08T01:49:10;13.33;;;13.23;;
9270;SDS011;4673;53.458;9.940;2024-03-08T01:51:36;13.17;;;13.07;;
9270;SDS011;4673;53.458;9.940;2024-03-08T01:54:03;13.47;;;13.37;;
9270;SDS011;4673;53.458;9.940;2024-03-08T01:56:29;12.17;;;12.07;;
9270;SDS011;4673;53.458;9.940;2024-03-08T01:58:56;12.60;;;12.50;;
9270;SDS011;4673;53.458;9.940;2024-03-08T02:01:23;12.47;;;12.37;;
9270;SDS011;4673;53.458;9.940;2024-03-08T02:03:50;12.83;;;12.73;;
9270;SDS011;4673;53.458;9.940;2024-03-08T02:06:15;13.57;;;13.47;;
9270;SDS011;4673;53.458;9.940;2024-03-08T02:08:45;13.83;;;13.73;;
9270;SDS011;4673;53.458;9.940;2024-03-08T02:11:11;14.33;;;14.23;;
9270;SDS011;4673;53.458;9.940;2024-03-08T02:13:38;12.03;;;11.93;;
9270;SDS011;4673;53.458;9.940;2024-03-08T02:16:03;11.80;;;11.70;;
9270;SDS011;4673;53.458;9.940;2024-03-08T02:18:33;11.40;;;11.33;;
9270;SDS011;4673;53.458;9.940;2024-03-08T02:20:59;12.97;;;12.87;;
9270;SDS011;4673;53.458;9.940;2024-03-08T02:23:27;12.90;;;12.80;;
9270;SDS011;4673;53.458;9.940;2024-03-08T02:25:54;12.90;;;12.80;;
9270;SDS011;4673;53.458;9.940;2024-03-08T02:28:21;12.93;;;12.83;;
9270;SDS011;4673;53.458;9.940;2024-03-08T02:30:48;13.33;;;13.23;;
9270;SDS011;4673;53.458;9.940;2024-03-08T02:33:18;12.07;;;11.97;;
9270;SDS011;4673;53.458;9.940;2024-03-08T02:35:44;11.93;;;11.83;;
9270;SDS011;4673;53.458;9.940;2024-03-08T02:38:13;12.43;;;12.33;;
9270;SDS011;4673;53.458;9.940;2024-03-08T02:40:46;11.50;;;11.40;;
9270;SDS011;4673;53.458;9.940;2024-03-08T02:43:13;11.87;;;11.77;;
9270;SDS011;4673;53.458;9.940;2024-03-08T02:45:40;13.17;;;13.07;;
9270;SDS011;4673;53.458;9.940;2024-03-08T02:48:10;13.13;;;13.03;;
9270;SDS011;4673;53.458;9.940;2024-03-08T02:50:36;11.73;;;11.63;;
9270;SDS011;4673;53.458;9.940;2024-03-08T02:53:02;13.33;;;13.23;;
9270;SDS011;4673;53.458;9.940;2024-03-08T02:55:29;12.73;;;12.63;;
9270;SDS011;4673;53.458;9.940;2024-03-08T02:57:55;11.97;;;11.87;;
9270;SDS011;4673;53.458;9.940;2024-03-08T03:00:21;11.50;;;11.40;;
9270;SDS011;4673;53.458;9.940;2024-03-08T03:02:47;12.53;;;12.43;;
9270;SDS011;4673;53.458;9.940;2024-03-08T03:05:19;13.63;;;13.53;;
9270;SDS011;4673;53.458;9.940;2024-03-08T03:07:45;13.30;;;13.20;;
9270;SDS011;4673;53.458;9.940;2024-03-08T03:10:11;14.73;;;14.63;;
9270;SDS011;4673;53.458;9.940;2024-03-08T03:12:37;12.83;;;12.73;;
9270;SDS011;4673;53.458;9.940;2024-03-08T03:15:03;11.90;;;11.80;;
9270;SDS011;4673;53.458;9.940;2024-03-08T03:17:30;12.80;;;12.70;;
9270;SDS011;4673;53.458;9.940;2024-03-08T03:19:55;11.50;;;11.40;;
9270;SDS011;4673;53.458;9.940;2024-03-08T03:22:21;12.77;;;12.67;;
9270;SDS011;4673;53.458;9.940;2024-03-08T03:24:47;11.07;;;11.07;;
9270;SDS011;4673;53.458;9.940;2024-03-08T03:27:13;13.03;;;12.93;;
9270;SDS011;4673;53.458;9.940;2024-03-08T03:29:40;12.47;;;12.37;;
9270;SDS011;4673;53.458;9.940;2024-03-08T03:32:10;11.83;;;11.73;;
9270;SDS011;4673;53.458;9.940;2024-03-08T03:34:39;11.70;;;11.60;;
9270;SDS011;4673;53.458;9.940;2024-03-08T03:37:05;12.53;;;12.53;;
9270;SDS011;4673;53.458;9.940;2024-03-08T03:39:37;12.37;;;12.27;;
9270;SDS011;4673;53.458;9.940;2024-03-08T03:42:14;12.37;;;12.27;;
9270;SDS011;4673;53.458;9.940;2024-03-08T03:44:40;12.57;;;12.47;;
9270;SDS011;4673;53.458;9.940;2024-03-08T03:47:06;13.27;;;13.17;;
9270;SDS011;4673;53.458;9.940;2024-03-08T03:49:32;12.50;;;12.40;;
9270;SDS011;4673;53.458;9.940;2024-03-08T03:51:58;13.13;;;13.03;;
9270;SDS011;4673;53.458;9.940;2024-03-08T03:54:23;12.93;;;12.83;;
9270;SDS011;4673;53.458;9.940;2024-03-08T03:56:49;12.70;;;12.60;;
9270;SDS011;4673;53.458;9.940;2024-03-08T03:59:18;12.97;;;12.87;;
9270;SDS011;4673;53.458;9.940;2024-03-08T04:01:44;11.93;;;11.83;;
9270;SDS011;4673;53.458;9.940;2024-03-08T04:04:09;13.03;;;12.93;;
9270;SDS011;4673;53.458;9.940;2024-03-08T04:06:37;13.10;;;13.00;;
9270;SDS011;4673;53.458;9.940;2024-03-08T04:09:03;12.27;;;12.17;;
9270;SDS011;4673;53.458;9.940;2024-03-08T04:11:29;13.27;;;13.17;;
9270;SDS011;4673;53.458;9.940;2024-03-08T04:13:55;13.20;;;13.10;;
9270;SDS011;4673;53.458;9.940;2024-03-08T04:16:21;13.90;;;13.80;;
9270;SDS011;4673;53.458;9.940;2024-03-08T04:18:46;14.33;;;14.23;;
9270;SDS011;4673;53.458;9.940;2024-03-08T04:21:12;12.83;;;12.73;;
9270;SDS011;4673;53.458;9.940;2024-03-08T04:23:38;13.47;;;13.37;;
9270;SDS011;4673;53.458;9.940;2024-03-08T04:26:04;14.07;;;13.97;;
9270;SDS011;4673;53.458;9.940;2024-03-08T04:28:31;14.13;;;14.03;;
9270;SDS011;4673;53.458;9.940;2024-03-08T04:30:57;15.17;;;15.07;;
9270;SDS011;4673;53.458;9.940;2024-03-08T04:33:25;15.00;;;14.90;;
9270;SDS011;4673;53.458;9.940;2024-03-08T04:35:51;15.03;;;14.93;;
9270;SDS011;4673;53.458;9.940;2024-03-08T04:38:17;15.07;;;14.97;;
9270;SDS011;4673;53.458;9.940;2024-03-08T04:40:42;14.93;;;14.83;;
9270;SDS011;4673;53.458;9.940;2024-03-08T04:43:08;14.90;;;14.80;;
9270;SDS011;4673;53.458;9.940;2024-03-08T04:45:35;14.63;;;14.53;;
9270;SDS011;4673;53.458;9.940;2024-03-08T04:48:01;15.13;;;15.03;;
9270;SDS011;4673;53.458;9.940;2024-03-08T04:50:27;16.10;;;16.00;;
9270;SDS011;4673;53.458;9.940;2024-03-08T04:52:55;15.10;;;15.00;;
9270;SDS011;4673;53.458;9.940;2024-03-08T04:55:22;14.97;;;14.87;;
9270;SDS011;4673;53.458;9.940;2024-03-08T04:57:48;16.70;;;16.60;;
9270;SDS011;4673;53.458;9.940;2024-03-08T05:00:14;14.73;;;14.63;;
9270;SDS011;4673;53.458;9.940;2024-03-08T05:02:40;14.77;;;14.67;;
9270;SDS011;4673;53.458;9.940;2024-03-08T05:05:07;17.07;;;16.97;;
9270;SDS011;4673;53.458;9.940;2024-03-08T05:07:37;16.87;;;16.77;;
9270;SDS011;4673;53.458;9.940;2024-03-08T05:10:04;15.17;;;15.07;;
9270;SDS011;4673;53.458;9.940;2024-03-08T05:12:31;16.93;;;16.83;;
9270;SDS011;4673;53.458;9.940;2024-03-08T05:14:58;16.50;;;16.40;;
9270;SDS011;4673;53.458;9.940;2024-03-08T05:17:23;15.17;;;15.07;;
9270;SDS011;4673;53.458;9.940;2024-03-08T05:19:49;16.80;;;16.60;;
9270;SDS011;4673;53.458;9.940;2024-03-08T05:22:16;16.33;;;16.23;;
9270;SDS011;4673;53.458;9.940;2024-03-08T05:24:42;17.23;;;17.13;;
9270;SDS011;4673;53.458;9.940;2024-03-08T05:27:08;15.47;;;15.37;;
9270;SDS011;4673;53.458;9.940;2024-03-08T05:29:34;16.33;;;16.23;;
9270;SDS011;4673;53.458;9.940;2024-03-08T05:31:59;15.97;;;15.87;;
9270;SDS011;4673;53.458;9.940;2024-03-08T05:34:26;16.00;;;15.90;;
9270;SDS011;4673;53.458;9.940;2024-03-08T05:36:53;16.60;;;16.40;;
9270;SDS011;4673;53.458;9.940;2024-03-08T05:39:19;17.57;;;17.40;;
9270;SDS011;4673;53.458;9.940;2024-03-08T05:41:45;16.23;;;16.13;;
9270;SDS011;4673;53.458;9.940;2024-03-08T05:44:11;16.30;;;16.20;;
9270;SDS011;4673;53.458;9.940;2024-03-08T05:46:38;16.00;;;15.90;;
9270;SDS011;4673;53.458;9.940;2024-03-08T05:49:04;16.03;;;15.93;;
9270;SDS011;4673;53.458;9.940;2024-03-08T05:51:35;16.47;;;16.37;;
9270;SDS011;4673;53.458;9.940;2024-03-08T05:54:02;16.60;;;16.50;;
9270;SDS011;4673;53.458;9.940;2024-03-08T05:56:32;17.57;;;17.47;;
9270;SDS011;4673;53.458;9.940;2024-03-08T05:58:58;18.83;;;18.73;;
9270;SDS011;4673;53.458;9.940;2024-03-08T06:01:24;16.23;;;16.13;;
9270;SDS011;4673;53.458;9.940;2024-03-08T06:03:50;18.87;;;18.73;;
9270;SDS011;4673;53.458;9.940;2024-03-08T06:06:19;19.07;;;18.87;;
9270;SDS011;4673;53.458;9.940;2024-03-08T06:08:46;17.23;;;17.13;;
9270;SDS011;4673;53.458;9.940;2024-03-08T06:11:14;18.87;;;18.67;;
9270;SDS011;4673;53.458;9.940;2024-03-08T06:13:40;16.60;;;16.50;;
9270;SDS011;4673;53.458;9.940;2024-03-08T06:16:05;18.50;;;18.40;;
9270;SDS011;4673;53.458;9.940;2024-03-08T06:18:33;18.87;;;18.67;;
9270;SDS011;4673;53.458;9.940;2024-03-08T06:21:01;18.40;;;18.27;;
9270;SDS011;4673;53.458;9.940;2024-03-08T06:23:30;17.93;;;17.83;;
9270;SDS011;4673;53.458;9.940;2024-03-08T06:25:56;19.23;;;19.03;;
9270;SDS011;4673;53.458;9.940;2024-03-08T06:28:22;19.00;;;18.80;;
9270;SDS011;4673;53.458;9.940;2024-03-08T06:30:48;18.73;;;18.63;;
9270;SDS011;4673;53.458;9.940;2024-03-08T06:33:16;18.53;;;18.33;;
9270;SDS011;4673;53.458;9.940;2024-03-08T06:35:42;19.83;;;19.63;;
9270;SDS011;4673;53.458;9.940;2024-03-08T06:38:08;20.30;;;20.10;;
9270;SDS011;4673;53.458;9.940;2024-03-08T06:40:34;21.83;;;21.63;;
9270;SDS011;4673;53.458;9.940;2024-03-08T06:42:59;19.47;;;19.30;;
9270;SDS011;4673;53.458;9.940;2024-03-08T06:45:25;21.03;;;20.83;;
9270;SDS011;4673;53.458;9.940;2024-03-08T06:47:51;21.73;;;21.53;;
9270;SDS011;4673;53.458;9.940;2024-03-08T06:50:16;20.87;;;20.67;;
9270;SDS011;4673;53.458;9.940;2024-03-08T06:52:42;19.50;;;19.30;;
9270;SDS011;4673;53.458;9.940;2024-03-08T06:55:09;19.27;;;19.07;;
9270;SDS011;4673;53.458;9.940;2024-03-08T06:57:37;21.17;;;20.97;;
9270;SDS011;4673;53.458;9.940;2024-03-08T07:00:06;20.77;;;20.57;;
9270;SDS011;4673;53.458;9.940;2024-03-08T07:02:38;20.80;;;20.60;;
9270;SDS011;4673;53.458;9.940;2024-03-08T07:05:05;19.93;;;19.73;;
9270;SDS011;4673;53.458;9.940;2024-03-08T07:07:35;17.97;;;17.80;;
9270;SDS011;4673;53.458;9.940;2024-03-08T07:10:01;19.10;;;18.90;;
9270;SDS011;4673;53.458;9.940;2024-03-08T07:12:26;19.20;;;19.00;;
9270;SDS011;4673;53.458;9.940;2024-03-08T07:14:52;23.43;;;23.23;;
9270;SDS011;4673;53.458;9.940;2024-03-08T07:17:18;19.80;;;19.60;;
9270;SDS011;4673;53.458;9.940;2024-03-08T07:19:44;19.67;;;19.47;;
9270;SDS011;4673;53.458;9.940;2024-03-08T07:22:10;20.43;;;20.23;;
9270;SDS011;4673;53.458;9.940;2024-03-08T07:24:36;19.20;;;19.10;;
9270;SDS011;4673;53.458;9.940;2024-03-08T07:27:02;21.47;;;21.27;;
9270;SDS011;4673;53.458;9.940;2024-03-08T07:29:31;19.83;;;19.63;;
9270;SDS011;4673;53.458;9.940;2024-03-08T07:31:58;20.37;;;20.17;;
9270;SDS011;4673;53.458;9.940;2024-03-08T07:34:42;20.17;;;19.97;;
9270;SDS011;4673;53.458;9.940;2024-03-08T07:37:07;19.20;;;19.00;;
9270;SDS011;4673;53.458;9.940;2024-03-08T07:39:36;19.07;;;18.87;;
9270;SDS011;4673;53.458;9.940;2024-03-08T07:42:03;19.40;;;19.23;;
9270;SDS011;4673;53.458;9.940;2024-03-08T07:44:29;19.67;;;19.47;;
9270;SDS011;4673;53.458;9.940;2024-03-08T07:46:56;20.67;;;20.47;;
9270;SDS011;4673;53.458;9.940;2024-03-08T07:49:21;20.43;;;20.23;;
9270;SDS011;4673;53.458;9.940;2024-03-08T07:51:47;21.87;;;21.67;;
9270;SDS011;4673;53.458;9.940;2024-03-08T07:54:14;19.63;;;19.43;;
9270;SDS011;4673;53.458;9.940;2024-03-08T07:56:40;21.47;;;21.27;;
9270;SDS011;4673;53.458;9.940;2024-03-08T07:59:05;20.90;;;20.70;;
9270;SDS011;4673;53.458;9.940;2024-03-08T08:01:31;22.17;;;21.97;;
9270;SDS011;4673;53.458;9.940;2024-03-08T08:03:58;22.13;;;21.93;;
9270;SDS011;4673;53.458;9.940;2024-03-08T08:06:26;21.23;;;21.03;;
9270;SDS011;4673;53.458;9.940;2024-03-08T08:08:58;23.00;;;22.80;;
9270;SDS011;4673;53.458;9.940;2024-03-08T08:11:25;21.37;;;21.17;;
9270;SDS011;4673;53.458;9.940;2024-03-08T08:13:54;22.57;;;22.37;;
9270;SDS011;4673;53.458;9.940;2024-03-08T08:16:22;21.40;;;21.20;;
9270;SDS011;4673;53.458;9.940;2024-03-08T08:18:48;19.43;;;19.23;;
9270;SDS011;4673;53.458;9.940;2024-03-08T08:21:15;21.30;;;21.10;;
9270;SDS011;4673;53.458;9.940;2024-03-08T08:23:40;18.87;;;18.77;;
9270;SDS011;4673;53.458;9.940;2024-03-08T08:26:06;16.90;;;16.80;;
9270;SDS011;4673;53.458;9.940;2024-03-08T08:28:32;17.60;;;17.50;;
9270;SDS011;4673;53.458;9.940;2024-03-08T08:30:58;17.70;;;17.60;;
9270;SDS011;4673;53.458;9.940;2024-03-08T08:33:24;16.53;;;16.43;;
9270;SDS011;4673;53.458;9.940;2024-03-08T08:35:51;17.43;;;17.33;;
9270;SDS011;4673;53.458;9.940;2024-03-08T08:38:19;16.47;;;16.37;;
9270;SDS011;4673;53.458;9.940;2024-03-08T08:40:45;18.60;;;18.40;;
9270;SDS011;4673;53.458;9.940;2024-03-08T08:43:12;17.70;;;17.60;;
9270;SDS011;4673;53.458;9.940;2024-03-08T08:45:39;18.40;;;18.30;;
9270;SDS011;4673;53.458;9.940;2024-03-08T08:48:05;17.70;;;17.60;;
9270;SDS011;4673;53.458;9.940;2024-03-08T08:50:31;17.67;;;17.57;;
9270;SDS011;4673;53.458;9.940;2024-03-08T08:52:57;17.87;;;17.77;;
9270;SDS011;4673;53.458;9.940;2024-03-08T08:55:26;15.73;;;15.63;;
9270;SDS011;4673;53.458;9.940;2024-03-08T08:57:52;16.37;;;16.27;;
9270;SDS011;4673;53.458;9.940;2024-03-08T09:00:20;17.17;;;17.07;;
9270;SDS011;4673;53.458;9.940;2024-03-08T09:02:48;17.70;;;17.60;;
9270;SDS011;4673;53.458;9.940;2024-03-08T09:05:16;17.43;;;17.33;;
9270;SDS011;4673;53.458;9.940;2024-03-08T09:07:41;18.47;;;18.37;;
9270;SDS011;4673;53.458;9.940;2024-03-08T09:10:10;16.53;;;16.40;;
9270;SDS011;4673;53.458;9.940;2024-03-08T09:12:37;16.33;;;16.23;;
9270;SDS011;4673;53.458;9.940;2024-03-08T09:15:04;17.50;;;17.40;;
9270;SDS011;4673;53.458;9.940;2024-03-08T09:17:36;16.83;;;16.73;;
9270;SDS011;4673;53.458;9.940;2024-03-08T09:20:04;17.40;;;17.30;;
9270;SDS011;4673;53.458;9.940;2024-03-08T09:22:31;17.70;;;17.60;;
9270;SDS011;4673;53.458;9.940;2024-03-08T09:24:57;16.83;;;16.73;;
9270;SDS011;4673;53.458;9.940;2024-03-08T09:27:22;16.80;;;16.70;;
9270;SDS011;4673;53.458;9.940;2024-03-08T09:29:49;17.43;;;17.33;;
9270;SDS011;4673;53.458;9.940;2024-03-08T09:32:14;17.60;;;17.50;;
9270;SDS011;4673;53.458;9.940;2024-03-08T09:34:40;15.73;;;15.63;;
9270;SDS011;4673;53.458;9.940;2024-03-08T09:37:06;16.97;;;16.87;;
9270;SDS011;4673;53.458;9.940;2024-03-08T09:39:31;16.40;;;16.30;;
9270;SDS011;4673;53.458;9.940;2024-03-08T09:41:58;17.83;;;17.73;;
9270;SDS011;4673;53.458;9.940;2024-03-08T09:44:24;14.47;;;14.37;;
9270;SDS011;4673;53.458;9.940;2024-03-08T09:46:50;15.57;;;15.47;;
9270;SDS011;4673;53.458;9.940;2024-03-08T09:49:19;14.87;;;14.77;;
9270;SDS011;4673;53.458;9.940;2024-03-08T09:51:44;17.00;;;16.90;;
9270;SDS011;4673;53.458;9.940;2024-03-08T09:54:11;15.20;;;15.10;;
9270;SDS011;4673;53.458;9.940;2024-03-08T09:56:37;17.57;;;17.47;;
9270;SDS011;4673;53.458;9.940;2024-03-08T09:59:09;14.53;;;14.43;;
9270;SDS011;4673;53.458;9.940;2024-03-08T10:01:47;16.03;;;15.93;;
9270;SDS011;4673;53.458;9.940;2024-03-08T10:04:12;15.77;;;15.67;;
9270;SDS011;4673;53.458;9.940;2024-03-08T10:06:39;16.20;;;16.10;;
9270;SDS011;4673;53.458;9.940;2024-03-08T10:09:05;17.27;;;17.17;;
9270;SDS011;4673;53.458;9.940;2024-03-08T10:11:33;15.83;;;15.73;;
9270;SDS011;4673;53.458;9.940;2024-03-08T10:14:00;17.10;;;17.00;;
9270;SDS011;4673;53.458;9.940;2024-03-08T10:16:29;14.93;;;14.83;;
9270;SDS011;4673;53.458;9.940;2024-03-08T10:18:57;15.43;;;15.33;;
9270;SDS011;4673;53.458;9.940;2024-03-08T10:21:25;15.50;;;15.40;;
9270;SDS011;4673;53.458;9.940;2024-03-08T10:23:51;17.07;;;16.97;;
9270;SDS011;4673;53.458;9.940;2024-03-08T10:26:17;17.13;;;17.03;;
9270;SDS011;4673;53.458;9.940;2024-03-08T10:28:45;16.87;;;16.77;;
9270;SDS011;4673;53.458;9.940;2024-03-08T10:31:13;16.80;;;16.70;;
9270;SDS011;4673;53.458;9.940;2024-03-08T10:33:40;15.87;;;15.77;;
9270;SDS011;4673;53.458;9.940;2024-03-08T10:36:09;15.80;;;15.70;;
9270;SDS011;4673;53.458;9.940;2024-03-08T10:38:37;15.57;;;15.47;;
9270;SDS011;4673;53.458;9.940;2024-03-08T10:41:07;17.57;;;17.47;;
9270;SDS011;4673;53.458;9.940;2024-03-08T10:49:25;16.77;;;16.67;;
9270;SDS011;4673;53.458;9.940;2024-03-08T10:51:56;16.13;;;16.03;;
9270;SDS011;4673;53.458;9.940;2024-03-08T10:54:24;14.37;;;14.27;;
9270;SDS011;4673;53.458;9.940;2024-03-08T10:56:51;14.37;;;14.27;;
9270;SDS011;4673;53.458;9.940;2024-03-08T10:59:17;13.97;;;13.87;;
9270;SDS011;4673;53.458;9.940;2024-03-08T11:01:44;14.70;;;14.60;;
9270;SDS011;4673;53.458;9.940;2024-03-08T11:04:10;12.70;;;12.60;;
9270;SDS011;4673;53.458;9.940;2024-03-08T11:09:02;13.27;;;13.17;;
9270;SDS011;4673;53.458;9.940;2024-03-08T11:11:29;14.10;;;14.00;;
9270;SDS011;4673;53.458;9.940;2024-03-08T11:13:57;12.53;;;12.43;;
9270;SDS011;4673;53.458;9.940;2024-03-08T11:19:34;13.93;;;13.83;;
9270;SDS011;4673;53.458;9.940;2024-03-08T11:21:43;12.23;;;12.23;;
9270;SDS011;4673;53.458;9.940;2024-03-08T11:24:12;13.57;;;13.47;;
9270;SDS011;4673;53.458;9.940;2024-03-08T11:26:39;11.80;;;11.80;;
9270;SDS011;4673;53.458;9.940;2024-03-08T11:34:53;14.53;;;14.43;;
9270;SDS011;4673;53.458;9.940;2024-03-08T11:37:19;12.47;;;12.37;;
9270;SDS011;4673;53.458;9.940;2024-03-08T11:39:55;13.40;;;13.30;;
9270;SDS011;4673;53.458;9.940;2024-03-08T11:42:24;14.90;;;14.80;;
9270;SDS011;4673;53.458;9.940;2024-03-08T11:44:53;14.27;;;14.17;;
9270;SDS011;4673;53.458;9.940;2024-03-08T11:47:19;13.83;;;13.73;;
9270;SDS011;4673;53.458;9.940;2024-03-08T11:49:46;13.47;;;13.37;;
9270;SDS011;4673;53.458;9.940;2024-03-08T11:52:17;14.03;;;13.93;;
9270;SDS011;4673;53.458;9.940;2024-03-08T11:54:52;13.70;;;13.60;;
9270;SDS011;4673;53.458;9.940;2024-03-08T11:57:19;12.90;;;12.80;;
9270;SDS011;4673;53.458;9.940;2024-03-08T11:59:55;13.77;;;13.67;;
9270;SDS011;4673;53.458;9.940;2024-03-08T12:02:59;13.60;;;13.50;;
9270;SDS011;4673;53.458;9.940;2024-03-08T12:05:26;14.80;;;14.70;;
9270;SDS011;4673;53.458;9.940;2024-03-08T12:07:56;15.00;;;14.90;;
9270;SDS011;4673;53.458;9.940;2024-03-08T12:10:23;14.03;;;13.93;;
9270;SDS011;4673;53.458;9.940;2024-03-08T12:12:51;12.70;;;12.60;;
9270;SDS011;4673;53.458;9.940;2024-03-08T12:15:18;14.93;;;14.83;;
9270;SDS011;4673;53.458;9.940;2024-03-08T12:17:46;14.67;;;14.57;;
9270;SDS011;4673;53.458;9.940;2024-03-08T12:22:43;12.47;;;12.37;;
9270;SDS011;4673;53.458;9.940;2024-03-08T12:25:13;13.53;;;13.43;;
9270;SDS011;4673;53.458;9.940;2024-03-08T12:27:42;12.47;;;12.37;;
9270;SDS011;4673;53.458;9.940;2024-03-08T12:30:24;12.67;;;12.57;;
9270;SDS011;4673;53.458;9.940;2024-03-08T12:32:58;13.20;;;13.10;;
9270;SDS011;4673;53.458;9.940;2024-03-08T12:35:25;12.30;;;12.20;;
9270;SDS011;4673;53.458;9.940;2024-03-08T12:37:52;11.80;;;11.70;;
9270;SDS011;4673;53.458;9.940;2024-03-08T12:40:27;11.60;;;11.60;;
9270;SDS011;4673;53.458;9.940;2024-03-08T12:42:57;11.03;;;11.03;;
9270;SDS011;4673;53.458;9.940;2024-03-08T12:45:24;11.13;;;11.13;;
9270;SDS011;4673;53.458;9.940;2024-03-08T12:47:50;11.63;;;11.63;;
9270;SDS011;4673;53.458;9.940;2024-03-08T12:50:16;11.93;;;11.83;;
9270;SDS011;4673;53.458;9.940;2024-03-08T12:52:42;12.87;;;12.77;;
9270;SDS011;4673;53.458;9.940;2024-03-08T12:55:08;11.53;;;11.43;;
9270;SDS011;4673;53.458;9.940;2024-03-08T12:57:34;11.90;;;11.80;;
9270;SDS011;4673;53.458;9.940;2024-03-08T13:00:01;11.60;;;11.50;;
9270;SDS011;4673;53.458;9.940;2024-03-08T13:02:28;11.70;;;11.60;;
9270;SDS011;4673;53.458;9.940;2024-03-08T13:04:56;12.90;;;12.80;;
9270;SDS011;4673;53.458;9.940;2024-03-08T13:07:25;12.20;;;12.10;;
9270;SDS011;4673;53.458;9.940;2024-03-08T13:09:52;12.87;;;12.77;;
9270;SDS011;4673;53.458;9.940;2024-03-08T13:12:19;10.40;;;10.40;;
9270;SDS011;4673;53.458;9.940;2024-03-08T13:14:45;11.13;;;11.13;;
9270;SDS011;4673;53.458;9.940;2024-03-08T13:17:12;10.00;;;10.00;;
9270;SDS011;4673;53.458;9.940;2024-03-08T13:19:38;9.33;;;9.23;;
9270;SDS011;4673;53.458;9.940;2024-03-08T13:22:04;10.53;;;10.53;;
9270;SDS011;4673;53.458;9.940;2024-03-08T13:24:30;10.50;;;10.50;;
9270;SDS011;4673;53.458;9.940;2024-03-08T13:26:56;8.97;;;8.97;;
9270;SDS011;4673;53.458;9.940;2024-03-08T13:29:23;8.93;;;8.93;;
9270;SDS011;4673;53.458;9.940;2024-03-08T13:31:48;9.87;;;9.87;;
9270;SDS011;4673;53.458;9.940;2024-03-08T13:34:17;9.60;;;9.60;;
9270;SDS011;4673;53.458;9.940;2024-03-08T13:36:43;9.57;;;9.57;;
9270;SDS011;4673;53.458;9.940;2024-03-08T13:39:11;10.67;;;10.67;;
9270;SDS011;4673;53.458;9.940;2024-03-08T13:41:45;10.17;;;10.17;;
9270;SDS011;4673;53.458;9.940;2024-03-08T13:44:11;9.70;;;9.70;;
9270;SDS011;4673;53.458;9.940;2024-03-08T13:46:37;8.47;;;8.47;;
9270;SDS011;4673;53.458;9.940;2024-03-08T13:49:04;9.13;;;9.13;;
9270;SDS011;4673;53.458;9.940;2024-03-08T13:51:32;9.87;;;9.87;;
9270;SDS011;4673;53.458;9.940;2024-03-08T13:53:59;10.37;;;10.37;;
9270;SDS011;4673;53.458;9.940;2024-03-08T13:56:25;10.57;;;10.57;;
9270;SDS011;4673;53.458;9.940;2024-03-08T13:58:52;9.83;;;9.83;;
9270;SDS011;4673;53.458;9.940;2024-03-08T14:01:17;8.60;;;8.60;;
9270;SDS011;4673;53.458;9.940;2024-03-08T14:03:43;9.77;;;9.77;;
9270;SDS011;4673;53.458;9.940;2024-03-08T14:06:09;10.40;;;10.40;;
9270;SDS011;4673;53.458;9.940;2024-03-08T14:08:35;10.13;;;10.13;;
9270;SDS011;4673;53.458;9.940;2024-03-08T14:11:04;9.93;;;9.83;;
9270;SDS011;4673;53.458;9.940;2024-03-08T14:13:43;10.27;;;10.27;;
9270;SDS011;4673;53.458;9.940;2024-03-08T14:16:11;9.77;;;9.77;;
9270;SDS011;4673;53.458;9.940;2024-03-08T14:18:37;10.20;;;10.20;;
9270;SDS011;4673;53.458;9.940;2024-03-08T14:21:03;10.60;;;10.53;;
9270;SDS011;4673;53.458;9.940;2024-03-08T14:23:30;9.70;;;9.60;;
9270;SDS011;4673;53.458;9.940;2024-03-08T14:25:55;10.63;;;10.63;;
9270;SDS011;4673;53.458;9.940;2024-03-08T14:28:24;9.90;;;9.90;;
9270;SDS011;4673;53.458;9.940;2024-03-08T14:30:52;9.87;;;9.87;;
9270;SDS011;4673;53.458;9.940;2024-03-08T14:33:18;9.80;;;9.70;;
9270;SDS011;4673;53.458;9.940;2024-03-08T14:35:44;10.20;;;10.20;;
9270;SDS011;4673;53.458;9.940;2024-03-08T14:38:12;9.03;;;9.03;;
9270;SDS011;4673;53.458;9.940;2024-03-08T14:40:38;9.83;;;9.77;;
9270;SDS011;4673;53.458;9.940;2024-03-08T14:43:04;9.03;;;9.03;;
9270;SDS011;4673;53.458;9.940;2024-03-08T14:45:31;9.30;;;9.30;;
9270;SDS011;4673;53.458;9.940;2024-03-08T14:47:57;9.53;;;9.53;;
9270;SDS011;4673;53.458;9.940;2024-03-08T14:50:23;9.03;;;9.03;;
9270;SDS011;4673;53.458;9.940;2024-03-08T14:52:49;8.77;;;8.77;;
9270;SDS011;4673;53.458;9.940;2024-03-08T14:55:16;9.53;;;9.53;;
9270;SDS011;4673;53.458;9.940;2024-03-08T14:57:47;8.90;;;8.80;;
9270;SDS011;4673;53.458;9.940;2024-03-08T15:00:16;8.87;;;8.87;;
9270;SDS011;4673;53.458;9.940;2024-03-08T15:02:51;8.63;;;8.63;;
9270;SDS011;4673;53.458;9.940;2024-03-08T15:05:21;8.50;;;8.50;;
9270;SDS011;4673;53.458;9.940;2024-03-08T15:07:51;9.83;;;9.83;;
9270;SDS011;4673;53.458;9.940;2024-03-08T15:10:20;9.33;;;9.33;;